sensor_id;sensor_type;location;lat;lon;timestamp;P1;durP1;ratioP1;P2;durP2;ratioP2
4634;SDS011;2330;48.158;11.816;2023-09-08T00:00:19;6.03;;;4.73;;
4634;SDS011;2330;48.158;11.816;2023-09-08T00:02:46;9.10;;;5.20;;
4634;SDS011;2330;48.158;11.816;2023-09-08T00:05:13;7.10;;;4.50;;
4634;SDS011;2330;48.158;11.816;2023-09-08T00:07:40;8.13;;;5.00;;
4634;SDS011;2330;48.158;11.816;2023-09-08T00:10:07;9.80;;;4.50;;
4634;SDS011;2330;48.158;11.816;2023-09-08T00:12:34;6.57;;;4.53;;
4634;SDS011;2330;48.158;11.816;2023-09-08T00:15:00;9.30;;;6.00;;
4634;SDS011;2330;48.158;11.816;2023-09-08T00:17:27;8.13;;;5.07;;
4634;SDS011;2330;48.158;11.816;2023-09-08T00:19:54;8.47;;;4.53;;
4634;SDS011;2330;48.158;11.816;2023-09-08T00:22:23;5.73;;;5.23;;
4634;SDS011;2330;48.158;11.816;2023-09-08T00:24:50;5.77;;;5.27;;
4634;SDS011;2330;48.158;11.816;2023-09-08T00:27:18;5.70;;;5.10;;
4634;SDS011;2330;48.158;11.816;2023-09-08T00:29:44;6.73;;;4.67;;
4634;SDS011;2330;48.158;11.816;2023-09-08T00:32:11;5.63;;;5.10;;
4634;SDS011;2330;48.158;11.816;2023-09-08T00:34:40;6.33;;;5.83;;
4634;SDS011;2330;48.158;11.816;2023-09-08T00:37:07;5.70;;;5.20;;
4634;SDS011;2330;48.158;11.816;2023-09-08T00:39:35;6.70;;;5.67;;
4634;SDS011;2330;48.158;11.816;2023-09-08T00:42:03;6.17;;;5.57;;
4634;SDS011;2330;48.158;11.816;2023-09-08T00:44:30;5.90;;;5.40;;
4634;SDS011;2330;48.158;11.816;2023-09-08T00:46:57;7.50;;;6.13;;
4634;SDS011;2330;48.158;11.816;2023-09-08T00:49:24;6.13;;;4.80;;
4634;SDS011;2330;48.158;11.816;2023-09-08T00:51:51;9.53;;;5.97;;
4634;SDS011;2330;48.158;11.816;2023-09-08T00:54:18;6.27;;;5.17;;
4634;SDS011;2330;48.158;11.816;2023-09-08T00:56:45;6.80;;;4.97;;
4634;SDS011;2330;48.158;11.816;2023-09-08T00:59:14;5.50;;;5.00;;
4634;SDS011;2330;48.158;11.816;2023-09-08T01:01:42;6.03;;;5.43;;
4634;SDS011;2330;48.158;11.816;2023-09-08T01:04:08;6.10;;;5.50;;
4634;SDS011;2330;48.158;11.816;2023-09-08T01:06:36;8.03;;;5.20;;
4634;SDS011;2330;48.158;11.816;2023-09-08T01:09:03;6.73;;;5.40;;
4634;SDS011;2330;48.158;11.816;2023-09-08T01:11:30;8.03;;;5.30;;
4634;SDS011;2330;48.158;11.816;2023-09-08T01:13:58;7.10;;;5.23;;
4634;SDS011;2330;48.158;11.816;2023-09-08T01:16:24;6.00;;;5.40;;
4634;SDS011;2330;48.158;11.816;2023-09-08T01:18:51;5.40;;;4.90;;
4634;SDS011;2330;48.158;11.816;2023-09-08T01:24:17;6.67;;;5.83;;
4634;SDS011;2330;48.158;11.816;2023-09-08T01:27:03;5.70;;;5.10;;
4634;SDS011;2330;48.158;11.816;2023-09-08T01:29:29;7.20;;;5.23;;
4634;SDS011;2330;48.158;11.816;2023-09-08T01:31:57;5.63;;;5.10;;
4634;SDS011;2330;48.158;11.816;2023-09-08T01:34:24;4.93;;;4.53;;
4634;SDS011;2330;48.158;11.816;2023-09-08T01:36:51;5.33;;;4.87;;
4634;SDS011;2330;48.158;11.816;2023-09-08T01:39:18;7.17;;;6.00;;
4634;SDS011;2330;48.158;11.816;2023-09-08T01:41:44;7.50;;;5.53;;
4634;SDS011;2330;48.158;11.816;2023-09-08T01:44:11;8.77;;;5.70;;
4634;SDS011;2330;48.158;11.816;2023-09-08T01:46:38;5.63;;;5.13;;
4634;SDS011;2330;48.158;11.816;2023-09-08T01:49:07;6.03;;;4.67;;
4634;SDS011;2330;48.158;11.816;2023-09-08T01:51:34;7.80;;;5.17;;
4634;SDS011;2330;48.158;11.816;2023-09-08T01:54:01;6.47;;;5.13;;
4634;SDS011;2330;48.158;11.816;2023-09-08T01:56:28;6.10;;;5.50;;
4634;SDS011;2330;48.158;11.816;2023-09-08T01:58:54;6.03;;;5.27;;
4634;SDS011;2330;48.158;11.816;2023-09-08T02:01:21;5.50;;;4.80;;
4634;SDS011;2330;48.158;11.816;2023-09-08T02:03:48;6.60;;;6.00;;
4634;SDS011;2330;48.158;11.816;2023-09-08T02:06:15;6.43;;;5.37;;
4634;SDS011;2330;48.158;11.816;2023-09-08T02:08:41;8.00;;;5.70;;
4634;SDS011;2330;48.158;11.816;2023-09-08T02:11:08;7.80;;;5.60;;
4634;SDS011;2330;48.158;11.816;2023-09-08T02:13:35;6.83;;;5.53;;
4634;SDS011;2330;48.158;11.816;2023-09-08T02:16:02;6.57;;;5.63;;
4634;SDS011;2330;48.158;11.816;2023-09-08T02:18:29;6.00;;;5.40;;
4634;SDS011;2330;48.158;11.816;2023-09-08T02:20:56;6.60;;;5.30;;
4634;SDS011;2330;48.158;11.816;2023-09-08T02:23:23;6.83;;;6.17;;
4634;SDS011;2330;48.158;11.816;2023-09-08T02:25:49;6.30;;;5.37;;
4634;SDS011;2330;48.158;11.816;2023-09-08T02:28:16;7.10;;;5.20;;
4634;SDS011;2330;48.158;11.816;2023-09-08T02:30:43;5.10;;;4.70;;
4634;SDS011;2330;48.158;11.816;2023-09-08T02:33:10;6.03;;;5.40;;
4634;SDS011;2330;48.158;11.816;2023-09-08T02:35:37;5.33;;;4.93;;
4634;SDS011;2330;48.158;11.816;2023-09-08T02:38:05;5.47;;;4.97;;
4634;SDS011;2330;48.158;11.816;2023-09-08T02:40:32;6.40;;;5.50;;
4634;SDS011;2330;48.158;11.816;2023-09-08T02:43:01;7.70;;;5.20;;
4634;SDS011;2330;48.158;11.816;2023-09-08T02:45:29;6.23;;;5.63;;
4634;SDS011;2330;48.158;11.816;2023-09-08T02:47:58;10.17;;;5.50;;
4634;SDS011;2330;48.158;11.816;2023-09-08T02:50:25;6.30;;;4.87;;
4634;SDS011;2330;48.158;11.816;2023-09-08T02:52:51;6.43;;;5.30;;
4634;SDS011;2330;48.158;11.816;2023-09-08T02:55:19;6.80;;;5.50;;
4634;SDS011;2330;48.158;11.816;2023-09-08T02:57:46;7.97;;;5.80;;
4634;SDS011;2330;48.158;11.816;2023-09-08T03:00:13;5.60;;;5.10;;
4634;SDS011;2330;48.158;11.816;2023-09-08T03:02:40;5.50;;;4.93;;
4634;SDS011;2330;48.158;11.816;2023-09-08T03:05:07;5.23;;;4.73;;
4634;SDS011;2330;48.158;11.816;2023-09-08T03:07:34;6.17;;;5.33;;
4634;SDS011;2330;48.158;11.816;2023-09-08T03:10:03;5.30;;;4.80;;
4634;SDS011;2330;48.158;11.816;2023-09-08T03:12:31;5.10;;;4.60;;
4634;SDS011;2330;48.158;11.816;2023-09-08T03:14:57;7.17;;;5.03;;
4634;SDS011;2330;48.158;11.816;2023-09-08T03:17:24;6.80;;;4.70;;
4634;SDS011;2330;48.158;11.816;2023-09-08T03:19:51;6.00;;;5.40;;
4634;SDS011;2330;48.158;11.816;2023-09-08T03:22:18;5.40;;;4.90;;
4634;SDS011;2330;48.158;11.816;2023-09-08T03:24:45;5.80;;;4.83;;
4634;SDS011;2330;48.158;11.816;2023-09-08T03:27:11;6.70;;;4.80;;
4634;SDS011;2330;48.158;11.816;2023-09-08T03:29:38;6.60;;;5.43;;
4634;SDS011;2330;48.158;11.816;2023-09-08T03:32:05;6.63;;;5.50;;
4634;SDS011;2330;48.158;11.816;2023-09-08T03:34:32;7.30;;;5.73;;
4634;SDS011;2330;48.158;11.816;2023-09-08T03:36:59;7.30;;;5.00;;
4634;SDS011;2330;48.158;11.816;2023-09-08T03:39:25;5.60;;;5.10;;
4634;SDS011;2330;48.158;11.816;2023-09-08T03:41:52;4.70;;;4.30;;
4634;SDS011;2330;48.158;11.816;2023-09-08T03:44:19;7.57;;;5.70;;
4634;SDS011;2330;48.158;11.816;2023-09-08T03:46:46;7.03;;;5.07;;
4634;SDS011;2330;48.158;11.816;2023-09-08T03:49:13;5.43;;;4.93;;
4634;SDS011;2330;48.158;11.816;2023-09-08T03:51:39;6.40;;;4.93;;
4634;SDS011;2330;48.158;11.816;2023-09-08T03:54:06;5.40;;;4.90;;
4634;SDS011;2330;48.158;11.816;2023-09-08T03:56:33;4.93;;;4.43;;
4634;SDS011;2330;48.158;11.816;2023-09-08T03:59:00;5.40;;;4.97;;
4634;SDS011;2330;48.158;11.816;2023-09-08T04:01:26;5.50;;;5.00;;
4634;SDS011;2330;48.158;11.816;2023-09-08T04:03:53;7.50;;;5.13;;
4634;SDS011;2330;48.158;11.816;2023-09-08T04:06:20;5.93;;;4.80;;
4634;SDS011;2330;48.158;11.816;2023-09-08T04:08:50;6.33;;;5.00;;
4634;SDS011;2330;48.158;11.816;2023-09-08T04:11:17;5.77;;;5.13;;
4634;SDS011;2330;48.158;11.816;2023-09-08T04:13:44;6.97;;;5.60;;
4634;SDS011;2330;48.158;11.816;2023-09-08T04:16:10;8.40;;;5.23;;
4634;SDS011;2330;48.158;11.816;2023-09-08T04:18:37;6.97;;;5.60;;
4634;SDS011;2330;48.158;11.816;2023-09-08T04:21:06;5.83;;;5.20;;
4634;SDS011;2330;48.158;11.816;2023-09-08T04:23:34;6.30;;;5.70;;
4634;SDS011;2330;48.158;11.816;2023-09-08T04:26:01;9.57;;;6.30;;
4634;SDS011;2330;48.158;11.816;2023-09-08T04:28:28;5.97;;;5.33;;
4634;SDS011;2330;48.158;11.816;2023-09-08T04:30:54;6.83;;;5.37;;
4634;SDS011;2330;48.158;11.816;2023-09-08T04:33:23;11.93;;;5.70;;
4634;SDS011;2330;48.158;11.816;2023-09-08T04:35:50;5.10;;;4.13;;
4634;SDS011;2330;48.158;11.816;2023-09-08T04:38:17;7.43;;;5.87;;
4634;SDS011;2330;48.158;11.816;2023-09-08T04:40:45;8.63;;;5.53;;
4634;SDS011;2330;48.158;11.816;2023-09-08T04:43:13;12.73;;;6.00;;
4634;SDS011;2330;48.158;11.816;2023-09-08T04:45:39;9.90;;;5.77;;
4634;SDS011;2330;48.158;11.816;2023-09-08T04:48:06;7.13;;;5.97;;
4634;SDS011;2330;48.158;11.816;2023-09-08T04:50:33;10.33;;;5.93;;
4634;SDS011;2330;48.158;11.816;2023-09-08T04:53:00;5.77;;;5.20;;
4634;SDS011;2330;48.158;11.816;2023-09-08T04:55:29;9.17;;;6.30;;
4634;SDS011;2330;48.158;11.816;2023-09-08T04:57:56;8.20;;;5.80;;
4634;SDS011;2330;48.158;11.816;2023-09-08T05:00:23;7.70;;;6.37;;
4634;SDS011;2330;48.158;11.816;2023-09-08T05:02:49;9.60;;;5.73;;
4634;SDS011;2330;48.158;11.816;2023-09-08T05:05:16;7.00;;;6.30;;
4634;SDS011;2330;48.158;11.816;2023-09-08T05:07:43;7.30;;;6.47;;
4634;SDS011;2330;48.158;11.816;2023-09-08T05:10:11;8.97;;;5.60;;
4634;SDS011;2330;48.158;11.816;2023-09-08T05:12:38;6.30;;;5.43;;
4634;SDS011;2330;48.158;11.816;2023-09-08T05:15:05;8.90;;;5.33;;
4634;SDS011;2330;48.158;11.816;2023-09-08T05:17:37;8.93;;;6.83;;
4634;SDS011;2330;48.158;11.816;2023-09-08T05:20:04;8.17;;;6.10;;
4634;SDS011;2330;48.158;11.816;2023-09-08T05:22:31;10.83;;;6.67;;
4634;SDS011;2330;48.158;11.816;2023-09-08T05:24:58;6.97;;;6.03;;
4634;SDS011;2330;48.158;11.816;2023-09-08T05:27:25;9.27;;;6.20;;
4634;SDS011;2330;48.158;11.816;2023-09-08T05:29:51;6.40;;;5.70;;
4634;SDS011;2330;48.158;11.816;2023-09-08T05:32:18;6.47;;;5.93;;
4634;SDS011;2330;48.158;11.816;2023-09-08T05:34:45;7.97;;;5.77;;
4634;SDS011;2330;48.158;11.816;2023-09-08T05:37:12;12.60;;;6.83;;
4634;SDS011;2330;48.158;11.816;2023-09-08T05:39:39;14.73;;;7.07;;
4634;SDS011;2330;48.158;11.816;2023-09-08T05:42:06;6.50;;;5.80;;
4634;SDS011;2330;48.158;11.816;2023-09-08T05:44:32;8.40;;;6.70;;
4634;SDS011;2330;48.158;11.816;2023-09-08T05:46:59;7.33;;;6.73;;
4634;SDS011;2330;48.158;11.816;2023-09-08T05:49:26;7.80;;;6.27;;
4634;SDS011;2330;48.158;11.816;2023-09-08T05:51:53;8.00;;;6.20;;
4634;SDS011;2330;48.158;11.816;2023-09-08T05:54:20;8.00;;;6.60;;
4634;SDS011;2330;48.158;11.816;2023-09-08T05:56:47;7.03;;;6.33;;
4634;SDS011;2330;48.158;11.816;2023-09-08T05:59:13;7.17;;;6.47;;
4634;SDS011;2330;48.158;11.816;2023-09-08T06:01:40;7.70;;;6.90;;
4634;SDS011;2330;48.158;11.816;2023-09-08T06:04:07;7.60;;;6.80;;
4634;SDS011;2330;48.158;11.816;2023-09-08T06:06:34;9.80;;;6.60;;
4634;SDS011;2330;48.158;11.816;2023-09-08T06:09:01;11.73;;;7.07;;
4634;SDS011;2330;48.158;11.816;2023-09-08T06:11:29;7.23;;;6.50;;
4634;SDS011;2330;48.158;11.816;2023-09-08T06:13:55;13.90;;;7.90;;
4634;SDS011;2330;48.158;11.816;2023-09-08T06:16:26;17.43;;;7.27;;
4634;SDS011;2330;48.158;11.816;2023-09-08T06:18:52;13.97;;;7.70;;
4634;SDS011;2330;48.158;11.816;2023-09-08T06:21:19;9.07;;;7.50;;
4634;SDS011;2330;48.158;11.816;2023-09-08T06:23:46;8.50;;;7.00;;
4634;SDS011;2330;48.158;11.816;2023-09-08T06:26:14;8.17;;;6.90;;
4634;SDS011;2330;48.158;11.816;2023-09-08T06:28:40;10.80;;;6.50;;
4634;SDS011;2330;48.158;11.816;2023-09-08T06:31:09;11.57;;;7.20;;
4634;SDS011;2330;48.158;11.816;2023-09-08T06:33:36;8.33;;;6.53;;
4634;SDS011;2330;48.158;11.816;2023-09-08T06:36:03;7.47;;;6.53;;
4634;SDS011;2330;48.158;11.816;2023-09-08T06:38:30;10.70;;;7.17;;
4634;SDS011;2330;48.158;11.816;2023-09-08T06:40:58;9.40;;;6.53;;
4634;SDS011;2330;48.158;11.816;2023-09-08T06:43:24;8.57;;;6.93;;
4634;SDS011;2330;48.158;11.816;2023-09-08T06:45:51;7.83;;;7.00;;
4634;SDS011;2330;48.158;11.816;2023-09-08T06:48:18;11.30;;;6.57;;
4634;SDS011;2330;48.158;11.816;2023-09-08T06:50:45;7.57;;;6.87;;
4634;SDS011;2330;48.158;11.816;2023-09-08T06:53:12;8.33;;;7.00;;
4634;SDS011;2330;48.158;11.816;2023-09-08T06:55:39;7.00;;;6.27;;
4634;SDS011;2330;48.158;11.816;2023-09-08T06:58:10;7.90;;;7.00;;
4634;SDS011;2330;48.158;11.816;2023-09-08T07:00:38;6.70;;;6.00;;
4634;SDS011;2330;48.158;11.816;2023-09-08T07:03:05;7.83;;;7.03;;
4634;SDS011;2330;48.158;11.816;2023-09-08T07:05:32;7.50;;;6.80;;
4634;SDS011;2330;48.158;11.816;2023-09-08T07:07:59;9.37;;;6.40;;
4634;SDS011;2330;48.158;11.816;2023-09-08T07:10:26;7.73;;;6.43;;
4634;SDS011;2330;48.158;11.816;2023-09-08T07:12:53;7.37;;;6.70;;
4634;SDS011;2330;48.158;11.816;2023-09-08T07:15:20;6.37;;;5.87;;
4634;SDS011;2330;48.158;11.816;2023-09-08T07:17:47;10.80;;;7.03;;
4634;SDS011;2330;48.158;11.816;2023-09-08T07:20:14;8.00;;;7.20;;
4634;SDS011;2330;48.158;11.816;2023-09-08T07:22:40;8.97;;;7.13;;
4634;SDS011;2330;48.158;11.816;2023-09-08T07:25:07;7.37;;;6.67;;
4634;SDS011;2330;48.158;11.816;2023-09-08T07:27:35;8.63;;;7.20;;
4634;SDS011;2330;48.158;11.816;2023-09-08T07:30:02;7.87;;;7.20;;
4634;SDS011;2330;48.158;11.816;2023-09-08T07:32:29;8.20;;;7.40;;
4634;SDS011;2330;48.158;11.816;2023-09-08T07:34:57;9.50;;;8.00;;
4634;SDS011;2330;48.158;11.816;2023-09-08T07:37:24;8.53;;;7.73;;
4634;SDS011;2330;48.158;11.816;2023-09-08T07:39:51;6.93;;;6.33;;
4634;SDS011;2330;48.158;11.816;2023-09-08T07:42:18;8.77;;;6.67;;
4634;SDS011;2330;48.158;11.816;2023-09-08T07:44:45;9.50;;;7.50;;
4634;SDS011;2330;48.158;11.816;2023-09-08T07:47:11;8.17;;;7.37;;
4634;SDS011;2330;48.158;11.816;2023-09-08T07:49:39;8.70;;;7.90;;
4634;SDS011;2330;48.158;11.816;2023-09-08T07:52:05;9.33;;;8.13;;
4634;SDS011;2330;48.158;11.816;2023-09-08T07:54:33;8.50;;;7.70;;
4634;SDS011;2330;48.158;11.816;2023-09-08T07:57:00;8.37;;;6.90;;
4634;SDS011;2330;48.158;11.816;2023-09-08T07:59:27;7.80;;;7.10;;
4634;SDS011;2330;48.158;11.816;2023-09-08T08:01:54;8.03;;;7.20;;
4634;SDS011;2330;48.158;11.816;2023-09-08T08:04:21;8.47;;;7.67;;
4634;SDS011;2330;48.158;11.816;2023-09-08T08:06:48;7.83;;;6.80;;
4634;SDS011;2330;48.158;11.816;2023-09-08T08:09:15;8.20;;;6.50;;
4634;SDS011;2330;48.158;11.816;2023-09-08T08:11:42;8.10;;;7.30;;
4634;SDS011;2330;48.158;11.816;2023-09-08T08:14:09;8.53;;;7.73;;
4634;SDS011;2330;48.158;11.816;2023-09-08T08:16:36;12.40;;;8.27;;
4634;SDS011;2330;48.158;11.816;2023-09-08T08:19:02;8.63;;;7.83;;
4634;SDS011;2330;48.158;11.816;2023-09-08T08:21:29;8.57;;;7.67;;
4634;SDS011;2330;48.158;11.816;2023-09-08T08:23:56;8.73;;;7.93;;
4634;SDS011;2330;48.158;11.816;2023-09-08T08:26:23;6.90;;;6.20;;
4634;SDS011;2330;48.158;11.816;2023-09-08T08:28:53;9.63;;;7.17;;
4634;SDS011;2330;48.158;11.816;2023-09-08T08:31:20;6.83;;;6.23;;
4634;SDS011;2330;48.158;11.816;2023-09-08T08:33:47;10.17;;;6.97;;
4634;SDS011;2330;48.158;11.816;2023-09-08T08:36:14;7.80;;;6.17;;
4634;SDS011;2330;48.158;11.816;2023-09-08T08:38:41;9.23;;;6.50;;
4634;SDS011;2330;48.158;11.816;2023-09-08T08:41:08;7.27;;;6.57;;
4634;SDS011;2330;48.158;11.816;2023-09-08T08:43:35;6.73;;;5.33;;
4634;SDS011;2330;48.158;11.816;2023-09-08T08:46:03;5.23;;;4.83;;
4634;SDS011;2330;48.158;11.816;2023-09-08T08:48:30;6.00;;;5.50;;
4634;SDS011;2330;48.158;11.816;2023-09-08T08:51:00;6.90;;;6.30;;
4634;SDS011;2330;48.158;11.816;2023-09-08T08:53:27;7.90;;;5.60;;
4634;SDS011;2330;48.158;11.816;2023-09-08T08:55:57;9.47;;;6.63;;
4634;SDS011;2330;48.158;11.816;2023-09-08T08:58:26;6.80;;;6.20;;
4634;SDS011;2330;48.158;11.816;2023-09-08T09:00:54;6.70;;;5.67;;
4634;SDS011;2330;48.158;11.816;2023-09-08T09:03:26;7.57;;;5.60;;
4634;SDS011;2330;48.158;11.816;2023-09-08T09:05:54;5.67;;;5.17;;
4634;SDS011;2330;48.158;11.816;2023-09-08T09:08:21;6.70;;;5.70;;
4634;SDS011;2330;48.158;11.816;2023-09-08T09:10:50;6.70;;;6.00;;
4634;SDS011;2330;48.158;11.816;2023-09-08T09:13:18;6.63;;;5.07;;
4634;SDS011;2330;48.158;11.816;2023-09-08T09:15:45;7.77;;;5.53;;
4634;SDS011;2330;48.158;11.816;2023-09-08T09:18:12;7.67;;;5.90;;
4634;SDS011;2330;48.158;11.816;2023-09-08T09:20:40;5.63;;;5.17;;
4634;SDS011;2330;48.158;11.816;2023-09-08T09:23:34;7.43;;;5.47;;
4634;SDS011;2330;48.158;11.816;2023-09-08T09:26:02;6.10;;;5.60;;
4634;SDS011;2330;48.158;11.816;2023-09-08T09:28:33;5.70;;;5.20;;
4634;SDS011;2330;48.158;11.816;2023-09-08T09:31:00;6.40;;;5.80;;
4634;SDS011;2330;48.158;11.816;2023-09-08T09:33:27;7.40;;;5.40;;
4634;SDS011;2330;48.158;11.816;2023-09-08T09:35:55;6.00;;;5.40;;
4634;SDS011;2330;48.158;11.816;2023-09-08T09:38:25;6.37;;;5.77;;
4634;SDS011;2330;48.158;11.816;2023-09-08T09:40:53;6.00;;;5.40;;
4634;SDS011;2330;48.158;11.816;2023-09-08T09:43:21;7.10;;;5.90;;
4634;SDS011;2330;48.158;11.816;2023-09-08T09:45:51;9.57;;;5.80;;
4634;SDS011;2330;48.158;11.816;2023-09-08T09:48:20;7.10;;;5.40;;
4634;SDS011;2330;48.158;11.816;2023-09-08T09:50:49;7.30;;;5.90;;
4634;SDS011;2330;48.158;11.816;2023-09-08T09:53:16;8.30;;;6.40;;
4634;SDS011;2330;48.158;11.816;2023-09-08T09:55:45;6.00;;;5.40;;
4634;SDS011;2330;48.158;11.816;2023-09-08T09:58:12;5.20;;;4.67;;
4634;SDS011;2330;48.158;11.816;2023-09-08T10:00:41;6.93;;;5.07;;
4634;SDS011;2330;48.158;11.816;2023-09-08T10:03:12;6.43;;;5.83;;
4634;SDS011;2330;48.158;11.816;2023-09-08T10:05:40;5.77;;;5.27;;
4634;SDS011;2330;48.158;11.816;2023-09-08T10:08:08;6.37;;;5.67;;
4634;SDS011;2330;48.158;11.816;2023-09-08T10:10:35;6.77;;;5.90;;
4634;SDS011;2330;48.158;11.816;2023-09-08T10:13:05;5.50;;;5.10;;
4634;SDS011;2330;48.158;11.816;2023-09-08T10:15:34;4.80;;;4.43;;
4634;SDS011;2330;48.158;11.816;2023-09-08T10:18:03;5.70;;;5.20;;
4634;SDS011;2330;48.158;11.816;2023-09-08T10:20:32;6.10;;;5.60;;
4634;SDS011;2330;48.158;11.816;2023-09-08T10:25:37;8.00;;;5.60;;
4634;SDS011;2330;48.158;11.816;2023-09-08T10:28:08;8.23;;;5.50;;
4634;SDS011;2330;48.158;11.816;2023-09-08T10:30:36;6.10;;;5.57;;
4634;SDS011;2330;48.158;11.816;2023-09-08T10:33:03;7.93;;;5.50;;
4634;SDS011;2330;48.158;11.816;2023-09-08T10:35:32;6.87;;;5.50;;
4634;SDS011;2330;48.158;11.816;2023-09-08T10:40:53;8.53;;;5.40;;
4634;SDS011;2330;48.158;11.816;2023-09-08T10:43:42;5.70;;;5.27;;
4634;SDS011;2330;48.158;11.816;2023-09-08T10:46:22;12.23;;;5.80;;
4634;SDS011;2330;48.158;11.816;2023-09-08T10:48:50;6.47;;;5.93;;
4634;SDS011;2330;48.158;11.816;2023-09-08T10:51:21;9.97;;;6.40;;
4634;SDS011;2330;48.158;11.816;2023-09-08T10:53:50;9.13;;;4.93;;
4634;SDS011;2330;48.158;11.816;2023-09-08T10:56:17;5.47;;;4.97;;
4634;SDS011;2330;48.158;11.816;2023-09-08T10:58:50;6.00;;;5.30;;
4634;SDS011;2330;48.158;11.816;2023-09-08T11:01:19;6.40;;;5.80;;
4634;SDS011;2330;48.158;11.816;2023-09-08T11:03:53;8.37;;;5.20;;
4634;SDS011;2330;48.158;11.816;2023-09-08T11:06:21;6.67;;;6.07;;
4634;SDS011;2330;48.158;11.816;2023-09-08T11:08:56;5.50;;;5.10;;
4634;SDS011;2330;48.158;11.816;2023-09-08T11:11:33;5.13;;;4.73;;
4634;SDS011;2330;48.158;11.816;2023-09-08T11:14:00;5.03;;;4.53;;
4634;SDS011;2330;48.158;11.816;2023-09-08T11:16:27;6.00;;;5.40;;
4634;SDS011;2330;48.158;11.816;2023-09-08T11:18:58;10.33;;;5.73;;
4634;SDS011;2330;48.158;11.816;2023-09-08T11:21:24;5.30;;;4.80;;
4634;SDS011;2330;48.158;11.816;2023-09-08T11:23:51;6.43;;;5.70;;
4634;SDS011;2330;48.158;11.816;2023-09-08T11:26:18;7.57;;;5.50;;
4634;SDS011;2330;48.158;11.816;2023-09-08T11:28:45;7.00;;;5.00;;
4634;SDS011;2330;48.158;11.816;2023-09-08T11:31:15;12.93;;;5.60;;
4634;SDS011;2330;48.158;11.816;2023-09-08T11:33:43;5.30;;;4.90;;
4634;SDS011;2330;48.158;11.816;2023-09-08T11:36:13;7.93;;;5.67;;
4634;SDS011;2330;48.158;11.816;2023-09-08T11:38:42;5.93;;;5.03;;
4634;SDS011;2330;48.158;11.816;2023-09-08T11:41:09;6.13;;;4.80;;
4634;SDS011;2330;48.158;11.816;2023-09-08T11:43:36;6.53;;;5.10;;
4634;SDS011;2330;48.158;11.816;2023-09-08T11:46:03;6.17;;;5.20;;
4634;SDS011;2330;48.158;11.816;2023-09-08T11:48:31;5.83;;;5.07;;
4634;SDS011;2330;48.158;11.816;2023-09-08T11:50:58;5.90;;;5.33;;
4634;SDS011;2330;48.158;11.816;2023-09-08T11:53:25;5.43;;;4.93;;
4634;SDS011;2330;48.158;11.816;2023-09-08T11:55:53;8.87;;;5.40;;
4634;SDS011;2330;48.158;11.816;2023-09-08T11:58:20;4.83;;;4.43;;
4634;SDS011;2330;48.158;11.816;2023-09-08T12:00:48;4.60;;;4.30;;
4634;SDS011;2330;48.158;11.816;2023-09-08T12:03:15;5.40;;;4.67;;
4634;SDS011;2330;48.158;11.816;2023-09-08T12:05:50;6.30;;;5.33;;
4634;SDS011;2330;48.158;11.816;2023-09-08T12:08:17;6.00;;;5.03;;
4634;SDS011;2330;48.158;11.816;2023-09-08T12:10:44;5.37;;;4.90;;
4634;SDS011;2330;48.158;11.816;2023-09-08T12:13:11;4.40;;;4.10;;
4634;SDS011;2330;48.158;11.816;2023-09-08T12:15:40;5.67;;;4.90;;
4634;SDS011;2330;48.158;11.816;2023-09-08T12:18:09;5.90;;;5.23;;
4634;SDS011;2330;48.158;11.816;2023-09-08T12:20:37;5.10;;;4.70;;
4634;SDS011;2330;48.158;11.816;2023-09-08T12:23:06;9.97;;;5.10;;
4634;SDS011;2330;48.158;11.816;2023-09-08T12:25:48;7.67;;;5.37;;
4634;SDS011;2330;48.158;11.816;2023-09-08T12:28:20;11.93;;;4.73;;
4634;SDS011;2330;48.158;11.816;2023-09-08T12:30:51;6.33;;;4.80;;
4634;SDS011;2330;48.158;11.816;2023-09-08T12:33:19;5.30;;;4.80;;
4634;SDS011;2330;48.158;11.816;2023-09-08T12:35:47;5.27;;;4.87;;
4634;SDS011;2330;48.158;11.816;2023-09-08T12:38:17;5.30;;;4.10;;
4634;SDS011;2330;48.158;11.816;2023-09-08T12:40:44;10.77;;;4.83;;
4634;SDS011;2330;48.158;11.816;2023-09-08T12:43:11;6.20;;;4.90;;
4634;SDS011;2330;48.158;11.816;2023-09-08T12:45:52;5.30;;;4.83;;
4634;SDS011;2330;48.158;11.816;2023-09-08T12:48:19;5.70;;;5.20;;
4634;SDS011;2330;48.158;11.816;2023-09-08T12:50:46;5.40;;;4.20;;
4634;SDS011;2330;48.158;11.816;2023-09-08T12:53:15;5.73;;;4.27;;
4634;SDS011;2330;48.158;11.816;2023-09-08T12:55:44;4.57;;;4.10;;
4634;SDS011;2330;48.158;11.816;2023-09-08T12:58:10;6.43;;;5.20;;
4634;SDS011;2330;48.158;11.816;2023-09-08T13:00:37;5.33;;;4.83;;
4634;SDS011;2330;48.158;11.816;2023-09-08T13:03:04;6.63;;;4.53;;
4634;SDS011;2330;48.158;11.816;2023-09-08T13:05:31;4.20;;;3.80;;
4634;SDS011;2330;48.158;11.816;2023-09-08T13:08:00;4.40;;;4.00;;
4634;SDS011;2330;48.158;11.816;2023-09-08T13:10:27;4.93;;;4.10;;
4634;SDS011;2330;48.158;11.816;2023-09-08T13:12:53;5.30;;;4.80;;
4634;SDS011;2330;48.158;11.816;2023-09-08T13:15:21;4.97;;;4.57;;
4634;SDS011;2330;48.158;11.816;2023-09-08T13:17:49;4.67;;;4.27;;
4634;SDS011;2330;48.158;11.816;2023-09-08T13:20:15;5.53;;;5.03;;
4634;SDS011;2330;48.158;11.816;2023-09-08T13:22:42;6.90;;;5.40;;
4634;SDS011;2330;48.158;11.816;2023-09-08T13:25:10;5.63;;;4.93;;
4634;SDS011;2330;48.158;11.816;2023-09-08T13:27:39;5.20;;;4.70;;
4634;SDS011;2330;48.158;11.816;2023-09-08T13:30:08;5.80;;;5.20;;
4634;SDS011;2330;48.158;11.816;2023-09-08T13:32:39;6.00;;;4.83;;
4634;SDS011;2330;48.158;11.816;2023-09-08T13:35:06;6.30;;;4.80;;
4634;SDS011;2330;48.158;11.816;2023-09-08T13:37:33;7.37;;;4.60;;
4634;SDS011;2330;48.158;11.816;2023-09-08T13:40:01;6.43;;;4.30;;
4634;SDS011;2330;48.158;11.816;2023-09-08T13:42:32;4.87;;;4.47;;
4634;SDS011;2330;48.158;11.816;2023-09-08T13:44:59;10.50;;;5.10;;
4634;SDS011;2330;48.158;11.816;2023-09-08T13:47:27;5.13;;;4.63;;
4634;SDS011;2330;48.158;11.816;2023-09-08T13:49:54;4.80;;;4.40;;
4634;SDS011;2330;48.158;11.816;2023-09-08T13:52:24;4.50;;;4.10;;
4634;SDS011;2330;48.158;11.816;2023-09-08T13:54:53;5.60;;;4.20;;
4634;SDS011;2330;48.158;11.816;2023-09-08T13:57:40;6.13;;;5.20;;
4634;SDS011;2330;48.158;11.816;2023-09-08T14:00:08;5.50;;;4.40;;
4634;SDS011;2330;48.158;11.816;2023-09-08T14:02:42;8.60;;;4.73;;
4634;SDS011;2330;48.158;11.816;2023-09-08T14:05:16;7.33;;;4.63;;
4634;SDS011;2330;48.158;11.816;2023-09-08T14:07:45;4.63;;;4.20;;
4634;SDS011;2330;48.158;11.816;2023-09-08T14:10:27;5.60;;;5.10;;
4634;SDS011;2330;48.158;11.816;2023-09-08T14:13:04;5.70;;;5.23;;
4634;SDS011;2330;48.158;11.816;2023-09-08T14:15:31;7.40;;;5.77;;
4634;SDS011;2330;48.158;11.816;2023-09-08T14:18:02;5.73;;;5.13;;
4634;SDS011;2330;48.158;11.816;2023-09-08T14:20:29;6.00;;;4.60;;
4634;SDS011;2330;48.158;11.816;2023-09-08T14:22:56;9.60;;;5.57;;
4634;SDS011;2330;48.158;11.816;2023-09-08T14:25:23;5.30;;;4.80;;
4634;SDS011;2330;48.158;11.816;2023-09-08T14:27:49;5.17;;;4.70;;
4634;SDS011;2330;48.158;11.816;2023-09-08T14:30:16;5.77;;;5.27;;
4634;SDS011;2330;48.158;11.816;2023-09-08T14:32:43;5.43;;;4.90;;
4634;SDS011;2330;48.158;11.816;2023-09-08T14:35:10;5.70;;;5.20;;
4634;SDS011;2330;48.158;11.816;2023-09-08T14:37:37;5.47;;;5.07;;
4634;SDS011;2330;48.158;11.816;2023-09-08T14:40:04;5.87;;;5.37;;
4634;SDS011;2330;48.158;11.816;2023-09-08T14:42:32;8.57;;;4.93;;
4634;SDS011;2330;48.158;11.816;2023-09-08T14:44:59;5.97;;;5.20;;
4634;SDS011;2330;48.158;11.816;2023-09-08T14:47:26;5.67;;;5.10;;
4634;SDS011;2330;48.158;11.816;2023-09-08T14:49:52;7.23;;;5.60;;
4634;SDS011;2330;48.158;11.816;2023-09-08T14:52:19;5.30;;;4.80;;
4634;SDS011;2330;48.158;11.816;2023-09-08T14:54:47;9.80;;;5.70;;
4634;SDS011;2330;48.158;11.816;2023-09-08T14:57:13;6.77;;;6.17;;
4634;SDS011;2330;48.158;11.816;2023-09-08T14:59:40;6.07;;;5.60;;
4634;SDS011;2330;48.158;11.816;2023-09-08T15:02:07;6.13;;;5.53;;
4634;SDS011;2330;48.158;11.816;2023-09-08T15:04:35;6.63;;;6.13;;
4634;SDS011;2330;48.158;11.816;2023-09-08T15:07:02;4.90;;;4.50;;
4634;SDS011;2330;48.158;11.816;2023-09-08T15:09:29;6.43;;;5.93;;
4634;SDS011;2330;48.158;11.816;2023-09-08T15:11:56;6.63;;;5.93;;